Portada
METAR-TAF:

METAR-TAF

Aeroports :

Madurai, Índia

latitud: 09-50-01N, longitud: 078-05-22E, altitud: 136 m

Observació

L'informe es va fer fa 54 minuts, a les 07:00 UTC
Vent 7 kt del Est/Nord-Est
Temperatura 35°C
Humitat 42%
Pressió 1011 hPa
Visibilitat: 7000 m
Escasses núvols a una alçada de 2000 ft

METAR: VOMD 300700Z 07007KT 7000 FEW020 35/20 Q1011 NOSIG

Hora: 13:24 (07:54 UTC)

Pronòstic

L'informe es va fer fa 2 hores i 54 minuts, a les 05:00 UTC
Pronòstic vàlid del 30 a les 06 UTC al 31 a les 12 UTC
Vent 10 kt del Est/Nord-Est
Visibilitat: 6000 m
Escasses núvols a una alçada de 2000 ft
Evolucionant progressivament
l' 30 a les 15 UTC al 30 a les 16 UTC
Visibilitat: 5000 m
calitja
Evolucionant progressivament
l' 31 a les 03 UTC al 31 a les 04 UTC
Visibilitat: 6000 m

TAF: VOMD 300500Z 3006/3112 07010KT 6000 FEW020 BECMG 3015/3016 5000 HZ BECMG 3103/3104 6000

Observacions i pronòstics meteorològics de més de 4000 aeroports (METAR i TAF).

Les estacions disponibles són els punts grocs i vermells al mapa.

Posi el ratolí al punt desitjat per veure el nom de l'estació.

Feu clic per veure les observacions i els pronòstics meteorològics.

Per canviar el mapa: feu clic els botons verds amb una creu de color negre per apropar; al botó verd amb un guió per allunyar la imatge; o en les fletxes verdes per a mapes adjacents.


METAR-TAF: